Time;durP1;ratioP1;P1;durP2;ratioP2;P2;SDS_P1;SDS_P2;PMS_P1;PMS_P2;Temp;Humidity;BMP_temperature;BMP_pressure;BME280_temperature;BME280_humidity;BME280_pressure;Samples;Min_cycle;Max_cycle;Signal;HPM_P1;HPM_P2
2021/07/07 00:00:41;;;;;;;;;;;;;;;;;;2114748;27;47210;-68
2021/07/07 00:01:43;;;;;;;;;;;;;;;;;;2114067;28;45532;-68
2021/07/07 00:02:44;;;;;;;;;;;;;;;;;;2114080;28;43750;-69
2021/07/07 00:03:46;;;;;;;;;;;;;;;;;;2105830;28;44348;-68
2021/07/07 00:04:49;;;;;;;;;;;;;;;;;;2114465;28;45999;-68
2021/07/07 00:05:51;;;;;;;;;;;;;;;;;;2113885;28;44274;-68
2021/07/07 00:06:52;;;;;;;;;;;;;;;;;;2105574;28;43992;-68
2021/07/07 00:07:54;;;;;;;;;;;;;;;;;;2105655;28;44649;-68
2021/07/07 00:08:55;;;;;;;;;;;;;;;;;;2105811;28;44227;-69
2021/07/07 00:09:56;;;;;;;;;;;;;;;;;;2114007;28;45333;-68
2021/07/07 00:10:58;;;;;;;;;;;;;;;;;;2114208;28;45342;-68
2021/07/07 00:12:00;;;;;;;;;;;;;;;;;;2105559;28;44107;-68
2021/07/07 00:13:03;;;;;;;;;;;;;;;;;;2105721;28;43802;-68
2021/07/07 00:14:04;;;;;;;;;;;;;;;;;;2114000;28;42501;-68
2021/07/07 00:15:08;;;;;;;;;;;;;;;;;;2114774;27;44503;-68
2021/07/07 00:16:09;;;;;;;;;;;;;;;;;;2114395;27;45460;-68
2021/07/07 00:17:11;;;;;;;;;;;;;;;;;;2114077;28;45365;-68
2021/07/07 00:18:13;;;;;;;;;;;;;;;;;;2113884;28;45733;-68
2021/07/07 00:19:15;;;;;;;;;;;;;;;;;;2114253;28;44141;-69
2021/07/07 00:20:18;;;;;;;;;;;;;;;;;;2114082;28;44008;-68
2021/07/07 00:21:20;;;;;;;;;;;;;;;;;;2114636;27;44251;-68
2021/07/07 00:22:21;;;;;;;;;;;;;;;;;;2113811;28;44560;-67
2021/07/07 00:23:23;;;;;;;;;;;;;;;;;;2114005;28;45369;-67
2021/07/07 00:24:25;;;;;;;;;;;;;;;;;;2114581;27;45210;-67
2021/07/07 00:25:27;;;;;;;;;;;;;;;;;;2114651;28;45669;-67
2021/07/07 00:26:28;;;;;;;;;;;;;;;;;;2114091;28;44229;-67
2021/07/07 00:27:31;;;;;;;;;;;;;;;;;;2105571;28;44069;-67
2021/07/07 00:28:33;;;;;;;;;;;;;;;;;;2105790;28;45184;-66
2021/07/07 00:29:34;;;;;;;;;;;;;;;;;;2114324;28;43957;-66
2021/07/07 00:30:36;;;;;;;;;;;;;;;;;;2113900;28;46606;-66
2021/07/07 00:31:37;;;;;;;;;;;;;;;;;;2114022;28;45759;-65
2021/07/07 00:32:39;;;;;;;;;;;;;;;;;;2114387;27;46915;-65
2021/07/07 00:33:40;;;;;;;;;;;;;;;;;;2113948;28;45297;-65
2021/07/07 00:34:41;;;;;;;;;;;;;;;;;;2105550;28;46520;-65
2021/07/07 00:35:43;;;;;;;;;;;;;;;;;;2113897;28;46528;-66
2021/07/07 00:36:44;;;;;;;;;;;;;;;;;;2113532;28;46775;-65
2021/07/07 00:37:46;;;;;;;;;;;;;;;;;;2114613;27;44946;-66
2021/07/07 00:38:48;;;;;;;;;;;;;;;;;;2113613;28;45808;-66
2021/07/07 00:39:49;;;;;;;;;;;;;;;;;;2113829;28;45414;-67
2021/07/07 00:40:51;;;;;;;;;;;;;;;;;;2113921;28;46422;-66
2021/07/07 00:41:52;;;;;;;;;;;;;;;;;;2105727;28;45338;-66
2021/07/07 00:42:54;;;;;;;;;;;;;;;;;;2113586;28;45580;-66
2021/07/07 00:43:55;;;;;;;;;;;;;;;;;;2114561;27;46476;-66
2021/07/07 00:44:56;;;;;;;;;;;;;;;;;;2113909;28;46624;-67
2021/07/07 00:45:58;;;;;;;;;;;;;;;;;;2113924;28;46820;-67
2021/07/07 00:46:59;;;;;;;;;;;;;;;;;;2113583;28;46175;-66
2021/07/07 00:48:01;;;;;;;;;;;;;;;;;;2114247;28;45356;-66
2021/07/07 00:49:03;;;;;;;;;;;;;;;;;;2113874;28;44493;-67
2021/07/07 00:50:05;;;;;;;;;;;;;;;;;;2113783;28;46512;-67
2021/07/07 00:51:06;;;;;;;;;;;;;;;;;;2113757;28;47018;-67
2021/07/07 00:52:09;;;;;;;;;;;;;;;;;;2105355;28;46092;-67
2021/07/07 00:53:11;;;;;;;;;;;;;;;;;;2105337;28;45897;-67
2021/07/07 00:54:16;;;;;;;;;;;;;;;;;;2105762;28;44826;-67
2021/07/07 00:55:17;;;;;;;;;;;;;;;;;;2105844;28;45853;-66
2021/07/07 00:56:19;;;;;;;;;;;;;;;;;;2113678;28;44507;-68
2021/07/07 00:57:24;;;;;;;;;;;;;;;;;;2113683;28;45876;-68
2021/07/07 00:58:27;;;;;;;;;;;;;;;;;;2106138;28;45647;-68
2021/07/07 00:59:29;;;;;;;;;;;;;;;;;;2113726;28;45896;-68
2021/07/07 01:00:31;;;;;;;;;;;;;;;;;;2114437;27;45324;-68
2021/07/07 01:01:33;;;;;;;;;;;;;;;;;;2114506;27;44542;-68
2021/07/07 01:02:38;;;;;;;;;;;;;;;;;;2113612;28;44938;-68
2021/07/07 01:03:39;;;;;;;;;;;;;;;;;;2105707;28;46875;-67
2021/07/07 01:04:41;;;;;;;;;;;;;;;;;;2105376;28;45103;-67
2021/07/07 01:05:45;;;;;;;;;;;;;;;;;;2105192;28;47140;-67
2021/07/07 01:06:47;;;;;;;;;;;;;;;;;;2113780;28;47393;-68
2021/07/07 01:07:48;;;;;;;;;;;;;;;;;;2114268;27;47164;-68
2021/07/07 01:08:50;;;;;;;;;;;;;;;;;;2113669;28;47088;-68
2021/07/07 01:09:51;;;;;;;;;;;;;;;;;;2113719;28;47129;-68
2021/07/07 01:10:54;;;;;;;;;;;;;;;;;;2114112;28;44292;-68
2021/07/07 01:11:56;;;;;;;;;;;;;;;;;;2105514;28;44162;-67
2021/07/07 01:12:57;;;;;;;;;;;;;;;;;;2113592;28;44165;-68
2021/07/07 01:13:59;;;;;;;;;;;;;;;;;;2113655;28;44300;-68
2021/07/07 01:15:02;;;;;;;;;;;;;;;;;;2105402;28;45440;-68
2021/07/07 01:16:03;;;;;;;;;;;;;;;;;;2105464;28;45804;-68
2021/07/07 01:17:05;;;;;;;;;;;;;;;;;;2105380;28;44287;-66
2021/07/07 01:18:06;;;;;;;;;;;;;;;;;;2113640;28;42753;-66
2021/07/07 01:19:08;;;;;;;;;;;;;;;;;;2105189;28;46289;-66
2021/07/07 01:20:11;;;;;;;;;;;;;;;;;;2112954;27;45243;-68
2021/07/07 01:21:14;;;;;;;;;;;;;;;;;;2113702;28;45351;-67
2021/07/07 01:22:15;;;;;;;;;;;;;;;;;;2105423;28;43607;-68
2021/07/07 01:23:17;;;;;;;;;;;;;;;;;;2105359;28;45471;-68
2021/07/07 01:24:19;;;;;;;;;;;;;;;;;;2113745;28;45437;-67
2021/07/07 01:25:20;;;;;;;;;;;;;;;;;;2114221;27;45377;-67
2021/07/07 01:26:22;;;;;;;;;;;;;;;;;;2114175;28;45724;-68
2021/07/07 01:27:25;;;;;;;;;;;;;;;;;;2113517;28;45268;-67
2021/07/07 01:28:28;;;;;;;;;;;;;;;;;;2113641;28;45496;-67
2021/07/07 01:29:30;;;;;;;;;;;;;;;;;;2113449;28;45357;-68
2021/07/07 01:30:31;;;;;;;;;;;;;;;;;;2105497;28;44442;-69
2021/07/07 01:31:33;;;;;;;;;;;;;;;;;;2113648;28;44219;-69
2021/07/07 01:32:34;;;;;;;;;;;;;;;;;;2114465;27;44135;-69
2021/07/07 01:33:36;;;;;;;;;;;;;;;;;;2114078;27;45569;-70
2021/07/07 01:34:37;;;;;;;;;;;;;;;;;;2114127;27;46673;-68
2021/07/07 01:35:39;;;;;;;;;;;;;;;;;;2114227;27;45446;-67
2021/07/07 01:36:40;;;;;;;;;;;;;;;;;;2113495;28;45442;-67
2021/07/07 01:37:42;;;;;;;;;;;;;;;;;;2113585;28;46476;-67
2021/07/07 01:38:44;;;;;;;;;;;;;;;;;;2113684;28;46903;-67
2021/07/07 01:39:45;;;;;;;;;;;;;;;;;;2104799;28;44768;-66
2021/07/07 01:40:47;;;;;;;;;;;;;;;;;;2106067;28;43993;-66
2021/07/07 01:41:48;;;;;;;;;;;;;;;;;;2105583;28;45417;-67
2021/07/07 01:42:50;;;;;;;;;;;;;;;;;;2105669;28;45530;-68
2021/07/07 01:43:52;;;;;;;;;;;;;;;;;;2105672;28;45745;-68
2021/07/07 01:44:53;;;;;;;;;;;;;;;;;;2105860;28;44809;-67
2021/07/07 01:45:55;;;;;;;;;;;;;;;;;;2105860;28;43068;-68
2021/07/07 01:46:56;;;;;;;;;;;;;;;;;;2104873;28;45367;-69
2021/07/07 01:47:58;;;;;;;;;;;;;;;;;;2096820;28;45649;-67
2021/07/07 01:49:00;;;;;;;;;;;;;;;;;;2105075;28;44142;-68
2021/07/07 01:50:01;;;;;;;;;;;;;;;;;;2104956;28;46535;-67
2021/07/07 01:51:03;;;;;;;;;;;;;;;;;;2105187;28;44036;-68
2021/07/07 01:52:04;;;;;;;;;;;;;;;;;;2104622;28;45768;-68
2021/07/07 01:53:06;;;;;;;;;;;;;;;;;;2105112;28;45398;-68
2021/07/07 01:54:07;;;;;;;;;;;;;;;;;;2105243;28;43659;-67
2021/07/07 01:55:11;;;;;;;;;;;;;;;;;;2105100;28;45982;-68
2021/07/07 01:56:12;;;;;;;;;;;;;;;;;;2104854;28;45817;-68
2021/07/07 01:57:13;;;;;;;;;;;;;;;;;;2105008;28;45911;-67
2021/07/07 01:58:15;;;;;;;;;;;;;;;;;;2096507;28;45854;-67
2021/07/07 01:59:16;;;;;;;;;;;;;;;;;;2105175;28;45959;-67
2021/07/07 02:00:18;;;;;;;;;;;;;;;;;;2104825;28;45972;-67
2021/07/07 02:01:19;;;;;;;;;;;;;;;;;;2105447;28;44708;-67
2021/07/07 02:02:21;;;;;;;;;;;;;;;;;;2104899;28;45903;-66
2021/07/07 02:03:22;;;;;;;;;;;;;;;;;;2096885;28;46190;-66
2021/07/07 02:04:24;;;;;;;;;;;;;;;;;;2096624;28;44894;-66
2021/07/07 02:05:28;;;;;;;;;;;;;;;;;;2106505;28;45954;-68
2021/07/07 02:06:30;;;;;;;;;;;;;;;;;;2106127;28;47302;-68
2021/07/07 02:07:31;;;;;;;;;;;;;;;;;;2106512;28;44690;-68
2021/07/07 02:08:32;;;;;;;;;;;;;;;;;;2106442;28;44421;-68
2021/07/07 02:09:34;;;;;;;;;;;;;;;;;;2106666;28;46064;-68
2021/07/07 02:10:36;;;;;;;;;;;;;;;;;;2106334;28;43558;-67
2021/07/07 02:11:37;;;;;;;;;;;;;;;;;;2106428;28;47029;-67
2021/07/07 02:12:39;;;;;;;;;;;;;;;;;;2106268;28;45855;-67
2021/07/07 02:13:40;;;;;;;;;;;;;;;;;;2106428;28;45781;-67
2021/07/07 02:14:42;;;;;;;;;;;;;;;;;;2106297;28;46825;-68
2021/07/07 02:15:44;;;;;;;;;;;;;;;;;;2107057;28;45894;-67
2021/07/07 02:16:45;;;;;;;;;;;;;;;;;;2107092;28;46874;-67
2021/07/07 02:17:48;;;;;;;;;;;;;;;;;;2106519;28;44571;-67
2021/07/07 02:18:49;;;;;;;;;;;;;;;;;;2106321;28;45342;-67
2021/07/07 02:19:51;;;;;;;;;;;;;;;;;;2106493;28;42403;-67
2021/07/07 02:20:52;;;;;;;;;;;;;;;;;;2106282;28;45206;-67
2021/07/07 02:21:53;;;;;;;;;;;;;;;;;;2107063;28;44287;-67
2021/07/07 02:22:55;;;;;;;;;;;;;;;;;;2106215;28;44126;-68
2021/07/07 02:23:57;;;;;;;;;;;;;;;;;;2106517;28;45373;-67
2021/07/07 02:24:59;;;;;;;;;;;;;;;;;;2106299;28;42704;-67
2021/07/07 02:26:00;;;;;;;;;;;;;;;;;;2106229;28;45215;-67
2021/07/07 02:27:02;;;;;;;;;;;;;;;;;;2097851;28;42897;-67
2021/07/07 02:28:04;;;;;;;;;;;;;;;;;;2098063;28;44185;-67
2021/07/07 02:29:05;;;;;;;;;;;;;;;;;;2106320;28;44274;-67
2021/07/07 02:30:09;;;;;;;;;;;;;;;;;;2107253;28;44634;-67
2021/07/07 02:31:10;;;;;;;;;;;;;;;;;;2106147;28;46372;-66
2021/07/07 02:32:12;;;;;;;;;;;;;;;;;;2098028;28;44607;-66
2021/07/07 02:33:13;;;;;;;;;;;;;;;;;;2106328;28;42706;-66
2021/07/07 02:34:15;;;;;;;;;;;;;;;;;;2106154;28;42787;-66
2021/07/07 02:35:18;;;;;;;;;;;;;;;;;;2105590;28;44223;-66
2021/07/07 02:36:20;;;;;;;;;;;;;;;;;;2106136;28;42537;-67
2021/07/07 02:37:21;;;;;;;;;;;;;;;;;;2097546;28;43091;-67
2021/07/07 02:38:23;;;;;;;;;;;;;;;;;;2106409;28;44290;-66
2021/07/07 02:39:25;;;;;;;;;;;;;;;;;;2106095;28;46805;-66
2021/07/07 02:40:28;;;;;;;;;;;;;;;;;;2097995;28;45232;-67
2021/07/07 02:41:29;;;;;;;;;;;;;;;;;;2098003;28;46463;-66
2021/07/07 02:42:31;;;;;;;;;;;;;;;;;;2106147;28;46605;-66
2021/07/07 02:43:32;;;;;;;;;;;;;;;;;;2106274;28;46346;-66
2021/07/07 02:44:33;;;;;;;;;;;;;;;;;;2106286;28;46547;-66
2021/07/07 02:45:36;;;;;;;;;;;;;;;;;;2106294;28;45404;-67
2021/07/07 02:46:37;;;;;;;;;;;;;;;;;;2106221;28;45890;-66
2021/07/07 02:47:40;;;;;;;;;;;;;;;;;;2106337;28;45605;-67
2021/07/07 02:48:41;;;;;;;;;;;;;;;;;;2106251;28;45443;-68
2021/07/07 02:49:43;;;;;;;;;;;;;;;;;;2106266;28;46498;-67
2021/07/07 02:50:44;;;;;;;;;;;;;;;;;;2106186;28;45407;-67
2021/07/07 02:51:46;;;;;;;;;;;;;;;;;;2106232;28;45412;-68
2021/07/07 02:52:49;;;;;;;;;;;;;;;;;;2106031;28;46857;-68
2021/07/07 02:53:51;;;;;;;;;;;;;;;;;;2106229;28;45329;-68
2021/07/07 02:54:52;;;;;;;;;;;;;;;;;;2106171;28;44486;-68
2021/07/07 02:55:54;;;;;;;;;;;;;;;;;;2106114;28;46613;-68
2021/07/07 02:56:55;;;;;;;;;;;;;;;;;;2105953;28;46467;-68
2021/07/07 02:58:01;;;;;;;;;;;;;;;;;;2106298;28;44318;-68
2021/07/07 02:59:02;;;;;;;;;;;;;;;;;;2106793;28;45463;-68
2021/07/07 03:00:04;;;;;;;;;;;;;;;;;;2107191;28;46566;-68
2021/07/07 03:01:06;;;;;;;;;;;;;;;;;;2106796;28;45742;-67
2021/07/07 03:02:08;;;;;;;;;;;;;;;;;;2106481;28;45759;-68
2021/07/07 03:03:20;;;;;;;;;;;;;;;;;;2106521;28;45754;-68
2021/07/07 03:04:21;;;;;;;;;;;;;;;;;;2106136;28;45891;-68
2021/07/07 03:05:23;;;;;;;;;;;;;;;;;;2098228;28;43515;-68
2021/07/07 03:06:24;;;;;;;;;;;;;;;;;;2097686;28;45896;-68
2021/07/07 03:07:25;;;;;;;;;;;;;;;;;;2106210;28;45809;-68
2021/07/07 03:08:31;;;;;;;;;;;;;;;;;;2106720;28;44703;-67
2021/07/07 03:09:33;;;;;;;;;;;;;;;;;;2106297;28;45958;-68
2021/07/07 03:10:34;;;;;;;;;;;;;;;;;;2106008;28;45792;-67
2021/07/07 03:11:37;;;;;;;;;;;;;;;;;;2098511;28;43702;-68
2021/07/07 03:12:38;;;;;;;;;;;;;;;;;;2105940;28;45809;-68
2021/07/07 03:13:40;;;;;;;;;;;;;;;;;;2106115;28;47032;-68
2021/07/07 03:14:41;;;;;;;;;;;;;;;;;;2097948;28;46142;-68
2021/07/07 03:15:43;;;;;;;;;;;;;;;;;;2097864;28;45926;-68
2021/07/07 03:16:44;;;;;;;;;;;;;;;;;;2106150;28;47267;-68
2021/07/07 03:17:46;;;;;;;;;;;;;;;;;;2106637;28;45878;-68
2021/07/07 03:18:47;;;;;;;;;;;;;;;;;;2106146;28;45697;-68
2021/07/07 03:19:49;;;;;;;;;;;;;;;;;;2105957;28;46981;-68
2021/07/07 03:20:51;;;;;;;;;;;;;;;;;;2112498;27;44616;-68
2021/07/07 03:21:52;;;;;;;;;;;;;;;;;;2114635;28;47010;-68
2021/07/07 03:22:54;;;;;;;;;;;;;;;;;;2114626;28;47172;-68
2021/07/07 03:23:55;;;;;;;;;;;;;;;;;;2114416;28;45317;-68
2021/07/07 03:24:57;;;;;;;;;;;;;;;;;;2114520;28;45338;-68
2021/07/07 03:25:58;;;;;;;;;;;;;;;;;;2114330;28;43056;-68
2021/07/07 03:26:59;;;;;;;;;;;;;;;;;;2114404;28;44259;-68
2021/07/07 03:28:01;;;;;;;;;;;;;;;;;;2115329;27;42849;-67
2021/07/07 03:29:03;;;;;;;;;;;;;;;;;;2115245;27;45569;-68
2021/07/07 03:30:05;;;;;;;;;;;;;;;;;;2114361;28;42163;-68
2021/07/07 03:31:06;;;;;;;;;;;;;;;;;;2106291;28;44623;-67
2021/07/07 03:32:07;;;;;;;;;;;;;;;;;;2105669;28;44178;-68
2021/07/07 03:33:09;;;;;;;;;;;;;;;;;;2105882;28;46582;-67
2021/07/07 03:34:10;;;;;;;;;;;;;;;;;;2114216;28;45328;-67
2021/07/07 03:35:12;;;;;;;;;;;;;;;;;;2114537;28;45373;-67
2021/07/07 03:36:13;;;;;;;;;;;;;;;;;;2114366;28;45531;-67
2021/07/07 03:37:15;;;;;;;;;;;;;;;;;;2114483;28;45418;-68
2021/07/07 03:38:16;;;;;;;;;;;;;;;;;;2114356;28;44528;-68
2021/07/07 03:39:17;;;;;;;;;;;;;;;;;;2110029;28;45314;-68
2021/07/07 03:40:19;;;;;;;;;;;;;;;;;;2105404;28;43604;-68
2021/07/07 03:41:20;;;;;;;;;;;;;;;;;;2105995;28;43369;-68
2021/07/07 03:42:22;;;;;;;;;;;;;;;;;;2105790;28;42411;-68
2021/07/07 03:43:23;;;;;;;;;;;;;;;;;;2106208;28;42574;-69
2021/07/07 03:44:25;;;;;;;;;;;;;;;;;;2106179;28;45425;-69
2021/07/07 03:45:27;;;;;;;;;;;;;;;;;;2105968;28;44154;-69
2021/07/07 03:46:28;;;;;;;;;;;;;;;;;;2105552;28;46396;-69
2021/07/07 03:47:30;;;;;;;;;;;;;;;;;;2106498;28;44730;-69
2021/07/07 03:48:31;;;;;;;;;;;;;;;;;;2105771;28;44164;-69
2021/07/07 03:49:33;;;;;;;;;;;;;;;;;;2097650;28;43887;-69
2021/07/07 03:50:35;;;;;;;;;;;;;;;;;;2097357;28;45691;-68
2021/07/07 03:51:36;;;;;;;;;;;;;;;;;;2105966;28;46845;-68
2021/07/07 03:52:38;;;;;;;;;;;;;;;;;;2105665;28;43452;-68
2021/07/07 03:53:39;;;;;;;;;;;;;;;;;;2105706;28;45598;-68
2021/07/07 03:54:40;;;;;;;;;;;;;;;;;;2106367;28;46709;-69
2021/07/07 03:55:42;;;;;;;;;;;;;;;;;;2105929;28;43499;-68
2021/07/07 03:56:43;;;;;;;;;;;;;;;;;;2105576;28;45286;-68
2021/07/07 03:57:45;;;;;;;;;;;;;;;;;;2105877;28;46553;-69
2021/07/07 03:58:47;;;;;;;;;;;;;;;;;;2105744;28;47023;-69
2021/07/07 03:59:48;;;;;;;;;;;;;;;;;;2105786;28;46515;-68
2021/07/07 04:00:53;;;;;;;;;;;;;;;;;;2097859;28;45673;-69
2021/07/07 04:01:54;;;;;;;;;;;;;;;;;;2098017;28;46532;-69
2021/07/07 04:02:56;;;;;;;;;;;;;;;;;;2105594;28;45455;-68
2021/07/07 04:03:57;;;;;;;;;;;;;;;;;;2106363;28;46759;-68
2021/07/07 04:05:00;;;;;;;;;;;;;;;;;;2106317;28;45490;-68
2021/07/07 04:06:02;;;;;;;;;;;;;;;;;;2106820;28;46528;-68
2021/07/07 04:07:03;;;;;;;;;;;;;;;;;;2105882;28;46043;-68
2021/07/07 04:08:05;;;;;;;;;;;;;;;;;;2105815;28;45736;-68
2021/07/07 04:09:06;;;;;;;;;;;;;;;;;;2105680;28;47136;-68
2021/07/07 04:10:08;;;;;;;;;;;;;;;;;;2105680;28;46081;-70
2021/07/07 04:11:10;;;;;;;;;;;;;;;;;;2105644;28;46019;-70
2021/07/07 04:12:11;;;;;;;;;;;;;;;;;;2105630;28;46953;-70
2021/07/07 04:13:13;;;;;;;;;;;;;;;;;;2106242;28;47083;-70
2021/07/07 04:14:22;;;;;;;;;;;;;;;;;;2105553;28;46546;-70
2021/07/07 04:15:23;;;;;;;;;;;;;;;;;;2105653;28;47102;-69
2021/07/07 04:16:24;;;;;;;;;;;;;;;;;;2105527;28;46126;-69
2021/07/07 04:17:26;;;;;;;;;;;;;;;;;;2105563;28;46976;-68
2021/07/07 04:18:27;;;;;;;;;;;;;;;;;;2097401;28;45888;-69
2021/07/07 04:19:29;;;;;;;;;;;;;;;;;;2105571;28;47252;-69
2021/07/07 04:20:30;;;;;;;;;;;;;;;;;;2105740;28;45972;-70
2021/07/07 04:21:32;;;;;;;;;;;;;;;;;;2105439;28;47485;-70
2021/07/07 04:22:34;;;;;;;;;;;;;;;;;;2105616;28;45742;-68
2021/07/07 04:23:35;;;;;;;;;;;;;;;;;;2105566;28;47225;-68
2021/07/07 04:24:37;;;;;;;;;;;;;;;;;;2105421;28;46916;-68
2021/07/07 04:25:38;;;;;;;;;;;;;;;;;;2105729;28;45957;-68
2021/07/07 04:26:39;;;;;;;;;;;;;;;;;;2113851;28;47023;-69
2021/07/07 04:27:42;;;;;;;;;;;;;;;;;;2104969;28;46335;-69
2021/07/07 04:28:43;;;;;;;;;;;;;;;;;;2105925;28;47212;-69
2021/07/07 04:29:45;;;;;;;;;;;;;;;;;;2106336;28;45390;-69
2021/07/07 04:30:46;;;;;;;;;;;;;;;;;;2105518;28;45370;-69
2021/07/07 04:31:48;;;;;;;;;;;;;;;;;;2105475;28;45229;-69
2021/07/07 04:32:49;;;;;;;;;;;;;;;;;;2097209;28;44246;-69
2021/07/07 04:33:51;;;;;;;;;;;;;;;;;;2105526;28;45573;-68
2021/07/07 04:34:53;;;;;;;;;;;;;;;;;;2110468;28;46743;-69
2021/07/07 04:35:54;;;;;;;;;;;;;;;;;;2105737;28;44206;-68
2021/07/07 04:36:56;;;;;;;;;;;;;;;;;;2113759;28;44192;-69
2021/07/07 04:37:57;;;;;;;;;;;;;;;;;;2113860;28;45404;-67
2021/07/07 04:38:59;;;;;;;;;;;;;;;;;;2114588;27;45497;-68
2021/07/07 04:40:01;;;;;;;;;;;;;;;;;;2113800;28;43996;-67
2021/07/07 04:41:02;;;;;;;;;;;;;;;;;;2105536;28;44595;-67
2021/07/07 04:42:04;;;;;;;;;;;;;;;;;;2105564;28;42958;-67
2021/07/07 04:43:05;;;;;;;;;;;;;;;;;;2105817;28;43738;-67
2021/07/07 04:44:07;;;;;;;;;;;;;;;;;;2114009;28;45314;-67
2021/07/07 04:45:09;;;;;;;;;;;;;;;;;;2113662;28;46316;-67
2021/07/07 04:46:11;;;;;;;;;;;;;;;;;;2113840;28;44117;-68
2021/07/07 04:47:12;;;;;;;;;;;;;;;;;;2113862;28;44871;-67
2021/07/07 04:48:14;;;;;;;;;;;;;;;;;;2105590;28;44678;-67
2021/07/07 04:49:15;;;;;;;;;;;;;;;;;;2113707;28;44142;-67
2021/07/07 04:50:18;;;;;;;;;;;;;;;;;;2114907;27;45375;-67
2021/07/07 04:51:19;;;;;;;;;;;;;;;;;;2113993;28;43839;-67
2021/07/07 04:52:21;;;;;;;;;;;;;;;;;;2113238;28;44924;-68
2021/07/07 04:53:22;;;;;;;;;;;;;;;;;;2113623;28;47082;-67
2021/07/07 04:54:23;;;;;;;;;;;;;;;;;;2113898;28;44103;-67
2021/07/07 04:55:25;;;;;;;;;;;;;;;;;;2114118;27;46667;-68
2021/07/07 04:56:26;;;;;;;;;;;;;;;;;;2113675;28;45385;-68
2021/07/07 04:57:28;;;;;;;;;;;;;;;;;;2114023;28;46563;-67
2021/07/07 04:58:29;;;;;;;;;;;;;;;;;;2113845;28;46022;-68
2021/07/07 04:59:31;;;;;;;;;;;;;;;;;;2113895;28;44978;-68
2021/07/07 05:00:32;;;;;;;;;;;;;;;;;;2113935;28;45388;-68
2021/07/07 05:01:36;;;;;;;;;;;;;;;;;;2113692;28;46471;-67
2021/07/07 05:02:38;;;;;;;;;;;;;;;;;;2114317;27;46635;-68
2021/07/07 05:03:39;;;;;;;;;;;;;;;;;;2113296;28;45478;-68
2021/07/07 05:04:41;;;;;;;;;;;;;;;;;;2113934;28;46407;-68
2021/07/07 05:05:42;;;;;;;;;;;;;;;;;;2114297;27;46545;-68
2021/07/07 05:06:44;;;;;;;;;;;;;;;;;;2114444;27;45203;-68
2021/07/07 05:07:45;;;;;;;;;;;;;;;;;;2114321;27;46549;-68
2021/07/07 05:08:48;;;;;;;;;;;;;;;;;;2113833;28;46491;-67
2021/07/07 05:09:49;;;;;;;;;;;;;;;;;;2105458;28;45462;-68
2021/07/07 05:10:50;;;;;;;;;;;;;;;;;;2105641;28;43568;-68
2021/07/07 05:11:52;;;;;;;;;;;;;;;;;;2105871;28;45343;-68
2021/07/07 05:12:53;;;;;;;;;;;;;;;;;;2105320;28;45546;-68
2021/07/07 05:13:55;;;;;;;;;;;;;;;;;;2113653;28;45453;-68
2021/07/07 05:14:57;;;;;;;;;;;;;;;;;;2113865;28;45222;-68
2021/07/07 05:15:59;;;;;;;;;;;;;;;;;;2113596;28;45845;-68
2021/07/07 05:17:00;;;;;;;;;;;;;;;;;;2113691;28;46985;-68
2021/07/07 05:18:02;;;;;;;;;;;;;;;;;;2113771;27;45888;-68
2021/07/07 05:19:05;;;;;;;;;;;;;;;;;;2113828;28;47270;-67
2021/07/07 05:20:07;;;;;;;;;;;;;;;;;;2113668;28;47368;-68
2021/07/07 05:21:11;;;;;;;;;;;;;;;;;;2114586;27;45094;-68
2021/07/07 05:22:12;;;;;;;;;;;;;;;;;;2113902;27;43492;-68
2021/07/07 05:23:14;;;;;;;;;;;;;;;;;;2114406;27;46265;-68
2021/07/07 05:24:15;;;;;;;;;;;;;;;;;;2113569;28;45724;-68
2021/07/07 05:25:17;;;;;;;;;;;;;;;;;;2105488;28;46865;-68
2021/07/07 05:26:19;;;;;;;;;;;;;;;;;;2113444;28;47061;-67
2021/07/07 05:27:20;;;;;;;;;;;;;;;;;;2114313;27;45797;-67
2021/07/07 05:28:21;;;;;;;;;;;;;;;;;;2113492;27;45979;-67
2021/07/07 05:29:23;;;;;;;;;;;;;;;;;;2105409;28;47548;-66
2021/07/07 05:30:24;;;;;;;;;;;;;;;;;;2113430;28;45786;-66
2021/07/07 05:31:26;;;;;;;;;;;;;;;;;;2113587;28;46146;-66
2021/07/07 05:32:27;;;;;;;;;;;;;;;;;;2113408;28;45762;-66
2021/07/07 05:33:34;;;;;;;;;;;;;;;;;;2114404;27;45171;-66
2021/07/07 05:34:36;;;;;;;;;;;;;;;;;;2114437;27;45896;-67
2021/07/07 05:35:38;;;;;;;;;;;;;;;;;;2113903;28;42553;-67
2021/07/07 05:36:39;;;;;;;;;;;;;;;;;;2113303;28;45278;-67
2021/07/07 05:37:41;;;;;;;;;;;;;;;;;;2113696;28;44264;-68
2021/07/07 05:38:42;;;;;;;;;;;;;;;;;;2114005;27;45264;-67
2021/07/07 05:39:44;;;;;;;;;;;;;;;;;;2114410;28;42648;-68
2021/07/07 05:40:45;;;;;;;;;;;;;;;;;;2107003;28;42845;-68
2021/07/07 05:41:47;;;;;;;;;;;;;;;;;;2115012;28;45706;-67
2021/07/07 05:42:54;;;;;;;;;;;;;;;;;;2114999;28;43348;-67
2021/07/07 05:43:56;;;;;;;;;;;;;;;;;;2115232;28;44196;-67
2021/07/07 05:44:58;;;;;;;;;;;;;;;;;;2115081;28;45741;-67
2021/07/07 05:45:59;;;;;;;;;;;;;;;;;;2106749;28;44322;-68
2021/07/07 05:47:01;;;;;;;;;;;;;;;;;;2114701;28;45446;-68
2021/07/07 05:48:03;;;;;;;;;;;;;;;;;;2115743;27;43661;-67
2021/07/07 05:49:05;;;;;;;;;;;;;;;;;;2115063;28;45367;-68
2021/07/07 05:50:06;;;;;;;;;;;;;;;;;;2115108;28;45723;-67
2021/07/07 05:51:08;;;;;;;;;;;;;;;;;;2115103;28;44252;-68
2021/07/07 05:52:10;;;;;;;;;;;;;;;;;;2101783;28;44500;-67
2021/07/07 05:53:11;;;;;;;;;;;;;;;;;;2106392;28;45268;-67
2021/07/07 05:54:13;;;;;;;;;;;;;;;;;;2098566;28;42125;-68
2021/07/07 05:55:14;;;;;;;;;;;;;;;;;;2098298;28;45299;-68
2021/07/07 05:56:16;;;;;;;;;;;;;;;;;;2106671;28;45513;-68
2021/07/07 05:57:17;;;;;;;;;;;;;;;;;;2106367;28;44213;-69
2021/07/07 05:58:19;;;;;;;;;;;;;;;;;;2106595;28;46856;-68
2021/07/07 05:59:20;;;;;;;;;;;;;;;;;;2106610;28;44299;-67
2021/07/07 06:00:24;;;;;;;;;;;;;;;;;;2107202;28;46653;-67
2021/07/07 06:01:26;;;;;;;;;;;;;;;;;;2107097;28;46869;-66
2021/07/07 06:02:27;;;;;;;;;;;;;;;;;;2106997;28;45025;-68
2021/07/07 06:03:29;;;;;;;;;;;;;;;;;;2107146;28;46710;-69
2021/07/07 06:04:30;;;;;;;;;;;;;;;;;;2106505;28;45342;-67
2021/07/07 06:05:32;;;;;;;;;;;;;;;;;;2098225;28;46468;-67
2021/07/07 06:06:33;;;;;;;;;;;;;;;;;;2106274;28;46814;-67
2021/07/07 06:07:35;;;;;;;;;;;;;;;;;;2106448;28;47075;-67
2021/07/07 06:08:37;;;;;;;;;;;;;;;;;;2106252;28;45850;-67
2021/07/07 06:09:38;;;;;;;;;;;;;;;;;;2098647;28;45347;-67
2021/07/07 06:10:41;;;;;;;;;;;;;;;;;;2106852;28;45333;-67
2021/07/07 06:11:43;;;;;;;;;;;;;;;;;;2107613;28;45550;-69
2021/07/07 06:12:44;;;;;;;;;;;;;;;;;;2106637;28;45790;-69
2021/07/07 06:13:46;;;;;;;;;;;;;;;;;;2106916;28;45588;-69
2021/07/07 06:14:47;;;;;;;;;;;;;;;;;;2106732;28;45648;-70
2021/07/07 06:15:49;;;;;;;;;;;;;;;;;;2106790;28;46642;-66
2021/07/07 06:16:50;;;;;;;;;;;;;;;;;;2107188;28;45392;-66
2021/07/07 06:17:52;;;;;;;;;;;;;;;;;;2106958;28;48202;-66
2021/07/07 06:18:55;;;;;;;;;;;;;;;;;;2106707;28;46370;-67
2021/07/07 06:19:56;;;;;;;;;;;;;;;;;;2106701;28;48574;-68
2021/07/07 06:20:57;;;;;;;;;;;;;;;;;;2104379;28;44784;-67
2021/07/07 06:22:00;;;;;;;;;;;;;;;;;;2115337;28;46053;-68
2021/07/07 06:23:02;;;;;;;;;;;;;;;;;;2115206;28;46448;-67
2021/07/07 06:24:04;;;;;;;;;;;;;;;;;;2107020;28;46332;-67
2021/07/07 06:25:07;;;;;;;;;;;;;;;;;;2114739;28;47091;-67
2021/07/07 06:26:09;;;;;;;;;;;;;;;;;;2115094;28;43508;-67
2021/07/07 06:27:10;;;;;;;;;;;;;;;;;;2106558;28;46927;-68
2021/07/07 06:28:12;;;;;;;;;;;;;;;;;;2115115;28;45880;-69
2021/07/07 06:29:15;;;;;;;;;;;;;;;;;;2115173;28;45795;-69
2021/07/07 06:30:20;;;;;;;;;;;;;;;;;;2115105;28;46203;-69
2021/07/07 06:31:22;;;;;;;;;;;;;;;;;;2115467;27;44425;-69
2021/07/07 06:32:24;;;;;;;;;;;;;;;;;;2115608;27;44898;-69
2021/07/07 06:33:25;;;;;;;;;;;;;;;;;;2114703;28;45890;-69
2021/07/07 06:34:27;;;;;;;;;;;;;;;;;;2114692;28;47066;-69
2021/07/07 06:35:35;;;;;;;;;;;;;;;;;;2106332;28;45907;-69
2021/07/07 06:36:37;;;;;;;;;;;;;;;;;;2106697;28;47405;-69
2021/07/07 06:37:39;;;;;;;;;;;;;;;;;;2106351;28;47060;-69
2021/07/07 06:38:39;;;;;;;;;;;;;;;;;;2107900;28;14641;-69
2021/07/07 06:39:41;;;;;;;;;;;;;;;;;;2106165;28;45898;-69
2021/07/07 06:40:42;;;;;;;;;;;;;;;;;;2107579;28;46894;-69
2021/07/07 06:41:43;;;;;;;;;;;;;;;;;;2106834;28;45443;-69
2021/07/07 06:42:46;;;;;;;;;;;;;;;;;;2106540;28;45287;-68
2021/07/07 06:43:48;;;;;;;;;;;;;;;;;;2107156;28;44268;-68
2021/07/07 06:44:49;;;;;;;;;;;;;;;;;;2107388;28;42939;-68
2021/07/07 06:45:51;;;;;;;;;;;;;;;;;;2106285;28;45396;-68
2021/07/07 06:46:52;;;;;;;;;;;;;;;;;;2098345;28;44435;-68
2021/07/07 06:47:54;;;;;;;;;;;;;;;;;;2106543;28;44607;-68
2021/07/07 06:48:55;;;;;;;;;;;;;;;;;;2098275;28;46408;-68
2021/07/07 06:49:56;;;;;;;;;;;;;;;;;;2098061;28;44158;-68
2021/07/07 06:50:58;;;;;;;;;;;;;;;;;;2106208;28;41772;-68
2021/07/07 06:51:59;;;;;;;;;;;;;;;;;;2105953;28;44357;-68
2021/07/07 06:53:01;;;;;;;;;;;;;;;;;;2106177;28;45878;-67
2021/07/07 06:54:02;;;;;;;;;;;;;;;;;;2106761;28;43181;-68
2021/07/07 06:55:05;;;;;;;;;;;;;;;;;;2106319;28;45531;-68
2021/07/07 06:56:06;;;;;;;;;;;;;;;;;;2098055;28;45965;-68
2021/07/07 06:57:08;;;;;;;;;;;;;;;;;;2106125;28;45536;-66
2021/07/07 06:58:12;;;;;;;;;;;;;;;;;;2106155;28;45396;-68
2021/07/07 06:59:14;;;;;;;;;;;;;;;;;;2098401;28;45348;-72
2021/07/07 07:00:16;;;;;;;;;;;;;;;;;;2112022;27;45302;-70
2021/07/07 07:01:18;;;;;;;;;;;;;;;;;;2114815;28;45355;-71
2021/07/07 07:02:19;;;;;;;;;;;;;;;;;;2114812;28;44216;-68